sensor_id;sensor_type;location;lat;lon;timestamp;temperature;humidity
35246;DHT22;21379;50.962;6.960;2022-09-02T00:01:13;18.00;95.90
35246;DHT22;21379;50.962;6.960;2022-09-02T00:03:40;17.90;96.00
35246;DHT22;21379;50.962;6.960;2022-09-02T00:06:08;18.00;96.20
35246;DHT22;21379;50.962;6.960;2022-09-02T00:08:35;17.90;96.10
35246;DHT22;21379;50.962;6.960;2022-09-02T00:11:03;17.90;96.30
35246;DHT22;21379;50.962;6.960;2022-09-02T00:13:32;17.90;96.30
35246;DHT22;21379;50.962;6.960;2022-09-02T00:15:59;17.90;96.40
35246;DHT22;21379;50.962;6.960;2022-09-02T00:18:28;17.80;96.30
35246;DHT22;21379;50.962;6.960;2022-09-02T00:20:56;17.80;96.60
35246;DHT22;21379;50.962;6.960;2022-09-02T00:23:23;17.70;96.80
35246;DHT22;21379;50.962;6.960;2022-09-02T00:25:50;17.60;97.10
35246;DHT22;21379;50.962;6.960;2022-09-02T00:28:17;17.60;97.10
35246;DHT22;21379;50.962;6.960;2022-09-02T00:30:45;17.60;97.20
35246;DHT22;21379;50.962;6.960;2022-09-02T00:33:13;17.60;97.20
35246;DHT22;21379;50.962;6.960;2022-09-02T00:35:41;17.60;97.50
35246;DHT22;21379;50.962;6.960;2022-09-02T00:38:08;17.60;97.60
35246;DHT22;21379;50.962;6.960;2022-09-02T00:40:36;17.50;97.90
35246;DHT22;21379;50.962;6.960;2022-09-02T00:43:05;17.50;98.00
35246;DHT22;21379;50.962;6.960;2022-09-02T00:45:33;17.40;98.30
35246;DHT22;21379;50.962;6.960;2022-09-02T00:48:00;17.30;98.20
35246;DHT22;21379;50.962;6.960;2022-09-02T00:50:30;17.40;98.70
35246;DHT22;21379;50.962;6.960;2022-09-02T00:53:04;17.30;98.60
35246;DHT22;21379;50.962;6.960;2022-09-02T00:55:35;17.30;99.20
35246;DHT22;21379;50.962;6.960;2022-09-02T00:58:06;17.30;99.10
35246;DHT22;21379;50.962;6.960;2022-09-02T01:00:37;17.20;99.10
35246;DHT22;21379;50.962;6.960;2022-09-02T01:03:08;17.20;99.40
35246;DHT22;21379;50.962;6.960;2022-09-02T01:05:39;17.10;99.60
35246;DHT22;21379;50.962;6.960;2022-09-02T01:08:11;17.10;99.90
35246;DHT22;21379;50.962;6.960;2022-09-02T01:10:39;17.00;99.90
35246;DHT22;21379;50.962;6.960;2022-09-02T01:13:10;17.00;99.90
35246;DHT22;21379;50.962;6.960;2022-09-02T01:15:40;17.00;99.90
35246;DHT22;21379;50.962;6.960;2022-09-02T01:18:12;16.90;99.90
35246;DHT22;21379;50.962;6.960;2022-09-02T01:20:39;16.90;99.90
35246;DHT22;21379;50.962;6.960;2022-09-02T01:23:08;16.90;99.90
35246;DHT22;21379;50.962;6.960;2022-09-02T01:25:36;16.80;99.90
35246;DHT22;21379;50.962;6.960;2022-09-02T01:28:05;16.80;99.90
35246;DHT22;21379;50.962;6.960;2022-09-02T01:30:34;16.70;99.90
35246;DHT22;21379;50.962;6.960;2022-09-02T01:33:02;16.70;99.90
35246;DHT22;21379;50.962;6.960;2022-09-02T01:35:29;16.60;99.90
35246;DHT22;21379;50.962;6.960;2022-09-02T01:37:57;16.60;99.90
35246;DHT22;21379;50.962;6.960;2022-09-02T01:40:28;16.50;99.90
35246;DHT22;21379;50.962;6.960;2022-09-02T01:42:58;16.50;99.90
35246;DHT22;21379;50.962;6.960;2022-09-02T01:45:26;16.50;99.90
35246;DHT22;21379;50.962;6.960;2022-09-02T01:47:54;16.40;99.90
35246;DHT22;21379;50.962;6.960;2022-09-02T01:50:21;16.40;99.90
35246;DHT22;21379;50.962;6.960;2022-09-02T01:52:48;16.30;99.90
35246;DHT22;21379;50.962;6.960;2022-09-02T01:55:15;16.30;99.90
35246;DHT22;21379;50.962;6.960;2022-09-02T01:57:43;16.20;99.90
35246;DHT22;21379;50.962;6.960;2022-09-02T02:00:12;16.20;99.90
35246;DHT22;21379;50.962;6.960;2022-09-02T02:02:39;16.20;99.90
35246;DHT22;21379;50.962;6.960;2022-09-02T02:05:07;16.20;99.90
35246;DHT22;21379;50.962;6.960;2022-09-02T02:07:34;16.20;99.90
35246;DHT22;21379;50.962;6.960;2022-09-02T02:10:01;16.10;99.90
35246;DHT22;21379;50.962;6.960;2022-09-02T02:12:29;16.20;99.90
35246;DHT22;21379;50.962;6.960;2022-09-02T02:14:59;16.10;99.90
35246;DHT22;21379;50.962;6.960;2022-09-02T02:17:26;16.20;99.90
35246;DHT22;21379;50.962;6.960;2022-09-02T02:19:53;16.20;99.90
35246;DHT22;21379;50.962;6.960;2022-09-02T02:22:20;16.30;99.90
35246;DHT22;21379;50.962;6.960;2022-09-02T02:24:47;16.30;99.90
35246;DHT22;21379;50.962;6.960;2022-09-02T02:27:14;16.20;99.90
35246;DHT22;21379;50.962;6.960;2022-09-02T02:29:41;16.20;99.90
35246;DHT22;21379;50.962;6.960;2022-09-02T02:32:09;16.20;99.90
35246;DHT22;21379;50.962;6.960;2022-09-02T02:34:36;16.20;99.90
35246;DHT22;21379;50.962;6.960;2022-09-02T02:37:04;16.10;99.90
35246;DHT22;21379;50.962;6.960;2022-09-02T02:39:31;16.10;99.90
35246;DHT22;21379;50.962;6.960;2022-09-02T02:41:58;16.10;99.90
35246;DHT22;21379;50.962;6.960;2022-09-02T02:44:25;16.10;99.90
35246;DHT22;21379;50.962;6.960;2022-09-02T02:46:53;16.00;99.90
35246;DHT22;21379;50.962;6.960;2022-09-02T02:49:22;16.00;99.90
35246;DHT22;21379;50.962;6.960;2022-09-02T02:51:51;16.00;99.90
35246;DHT22;21379;50.962;6.960;2022-09-02T02:54:18;16.00;99.90
35246;DHT22;21379;50.962;6.960;2022-09-02T02:56:45;16.00;99.90
35246;DHT22;21379;50.962;6.960;2022-09-02T02:59:12;16.00;99.90
35246;DHT22;21379;50.962;6.960;2022-09-02T03:01:39;16.00;99.90
35246;DHT22;21379;50.962;6.960;2022-09-02T03:04:06;16.10;99.90
35246;DHT22;21379;50.962;6.960;2022-09-02T03:06:35;16.10;99.90
35246;DHT22;21379;50.962;6.960;2022-09-02T03:09:02;16.10;99.90
35246;DHT22;21379;50.962;6.960;2022-09-02T03:11:29;16.00;99.90
35246;DHT22;21379;50.962;6.960;2022-09-02T03:13:56;16.00;99.90
35246;DHT22;21379;50.962;6.960;2022-09-02T03:16:24;16.00;99.90
35246;DHT22;21379;50.962;6.960;2022-09-02T03:18:51;16.00;99.90
35246;DHT22;21379;50.962;6.960;2022-09-02T03:21:19;16.00;99.90
35246;DHT22;21379;50.962;6.960;2022-09-02T03:23:49;16.00;99.90
35246;DHT22;21379;50.962;6.960;2022-09-02T03:26:20;16.00;99.90
35246;DHT22;21379;50.962;6.960;2022-09-02T03:28:48;16.00;99.90
35246;DHT22;21379;50.962;6.960;2022-09-02T03:31:16;16.00;99.90
35246;DHT22;21379;50.962;6.960;2022-09-02T03:33:44;16.00;99.90
35246;DHT22;21379;50.962;6.960;2022-09-02T03:36:19;16.00;99.90
35246;DHT22;21379;50.962;6.960;2022-09-02T03:38:46;16.00;99.90
35246;DHT22;21379;50.962;6.960;2022-09-02T03:41:14;16.00;99.90
35246;DHT22;21379;50.962;6.960;2022-09-02T03:43:41;16.00;99.90
35246;DHT22;21379;50.962;6.960;2022-09-02T03:46:08;16.00;99.90
35246;DHT22;21379;50.962;6.960;2022-09-02T03:48:35;16.00;99.90
35246;DHT22;21379;50.962;6.960;2022-09-02T03:51:02;16.00;99.90
35246;DHT22;21379;50.962;6.960;2022-09-02T03:53:30;16.10;99.90
35246;DHT22;21379;50.962;6.960;2022-09-02T03:55:57;16.10;99.90
35246;DHT22;21379;50.962;6.960;2022-09-02T03:58:26;16.10;99.90
35246;DHT22;21379;50.962;6.960;2022-09-02T04:00:53;16.10;99.90
35246;DHT22;21379;50.962;6.960;2022-09-02T04:03:20;16.10;99.90
35246;DHT22;21379;50.962;6.960;2022-09-02T04:05:48;16.10;99.90
35246;DHT22;21379;50.962;6.960;2022-09-02T04:08:15;16.10;99.90
35246;DHT22;21379;50.962;6.960;2022-09-02T04:10:42;16.10;99.90
35246;DHT22;21379;50.962;6.960;2022-09-02T04:13:09;16.10;99.90
35246;DHT22;21379;50.962;6.960;2022-09-02T04:15:39;16.10;99.90
35246;DHT22;21379;50.962;6.960;2022-09-02T04:21:32;16.10;99.90
35246;DHT22;21379;50.962;6.960;2022-09-02T04:23:59;16.10;99.90
35246;DHT22;21379;50.962;6.960;2022-09-02T04:26:26;16.10;99.90
35246;DHT22;21379;50.962;6.960;2022-09-02T04:28:54;16.10;99.90
35246;DHT22;21379;50.962;6.960;2022-09-02T04:31:23;16.20;99.90
35246;DHT22;21379;50.962;6.960;2022-09-02T04:33:50;16.20;99.90
35246;DHT22;21379;50.962;6.960;2022-09-02T04:36:18;16.20;99.90
35246;DHT22;21379;50.962;6.960;2022-09-02T04:38:46;16.10;99.90
35246;DHT22;21379;50.962;6.960;2022-09-02T04:41:15;16.10;99.90
35246;DHT22;21379;50.962;6.960;2022-09-02T04:43:42;16.10;99.90
35246;DHT22;21379;50.962;6.960;2022-09-02T04:46:11;16.10;99.90
35246;DHT22;21379;50.962;6.960;2022-09-02T04:48:40;16.10;99.90
35246;DHT22;21379;50.962;6.960;2022-09-02T04:51:11;16.10;99.90
35246;DHT22;21379;50.962;6.960;2022-09-02T04:53:39;16.10;99.90
35246;DHT22;21379;50.962;6.960;2022-09-02T04:56:07;16.00;99.90
35246;DHT22;21379;50.962;6.960;2022-09-02T04:58:35;16.00;99.90
35246;DHT22;21379;50.962;6.960;2022-09-02T05:01:05;16.00;99.90
35246;DHT22;21379;50.962;6.960;2022-09-02T05:03:32;16.00;99.90
35246;DHT22;21379;50.962;6.960;2022-09-02T05:06:02;16.10;99.90
35246;DHT22;21379;50.962;6.960;2022-09-02T05:08:30;16.10;99.90
35246;DHT22;21379;50.962;6.960;2022-09-02T05:10:57;16.20;99.90
35246;DHT22;21379;50.962;6.960;2022-09-02T05:13:24;16.20;99.90
35246;DHT22;21379;50.962;6.960;2022-09-02T05:15:51;16.30;99.90
35246;DHT22;21379;50.962;6.960;2022-09-02T05:18:19;16.30;99.90
35246;DHT22;21379;50.962;6.960;2022-09-02T05:20:46;16.30;99.90
35246;DHT22;21379;50.962;6.960;2022-09-02T05:23:14;16.30;99.90
35246;DHT22;21379;50.962;6.960;2022-09-02T05:25:41;16.30;99.90
35246;DHT22;21379;50.962;6.960;2022-09-02T05:28:08;16.40;99.90
35246;DHT22;21379;50.962;6.960;2022-09-02T05:30:36;16.40;99.90
35246;DHT22;21379;50.962;6.960;2022-09-02T05:33:03;16.50;99.90
35246;DHT22;21379;50.962;6.960;2022-09-02T05:35:31;16.60;99.90
35246;DHT22;21379;50.962;6.960;2022-09-02T05:37:58;16.70;99.90
35246;DHT22;21379;50.962;6.960;2022-09-02T05:40:26;16.70;99.90
35246;DHT22;21379;50.962;6.960;2022-09-02T05:42:53;16.80;99.90
35246;DHT22;21379;50.962;6.960;2022-09-02T05:45:20;16.90;99.90
35246;DHT22;21379;50.962;6.960;2022-09-02T05:47:48;17.00;99.90
35246;DHT22;21379;50.962;6.960;2022-09-02T05:50:15;17.10;99.90
35246;DHT22;21379;50.962;6.960;2022-09-02T05:52:42;17.10;99.90
35246;DHT22;21379;50.962;6.960;2022-09-02T05:55:10;17.20;99.90
35246;DHT22;21379;50.962;6.960;2022-09-02T05:57:38;17.20;99.90
35246;DHT22;21379;50.962;6.960;2022-09-02T06:00:06;17.30;99.90
35246;DHT22;21379;50.962;6.960;2022-09-02T06:02:33;17.30;99.90
35246;DHT22;21379;50.962;6.960;2022-09-02T06:05:00;17.40;99.90
35246;DHT22;21379;50.962;6.960;2022-09-02T06:07:27;17.40;99.90
35246;DHT22;21379;50.962;6.960;2022-09-02T06:09:54;17.50;99.90
35246;DHT22;21379;50.962;6.960;2022-09-02T06:12:21;17.60;99.90
35246;DHT22;21379;50.962;6.960;2022-09-02T06:14:50;17.70;99.90
35246;DHT22;21379;50.962;6.960;2022-09-02T06:17:17;17.90;99.90
35246;DHT22;21379;50.962;6.960;2022-09-02T06:19:43;18.00;99.90
35246;DHT22;21379;50.962;6.960;2022-09-02T06:22:11;18.10;99.90
35246;DHT22;21379;50.962;6.960;2022-09-02T06:24:38;18.30;99.90
35246;DHT22;21379;50.962;6.960;2022-09-02T06:27:05;18.40;99.90
35246;DHT22;21379;50.962;6.960;2022-09-02T06:29:32;18.60;99.90
35246;DHT22;21379;50.962;6.960;2022-09-02T06:32:01;18.80;99.90
35246;DHT22;21379;50.962;6.960;2022-09-02T06:34:28;19.00;99.90
35246;DHT22;21379;50.962;6.960;2022-09-02T06:36:55;19.10;99.90
35246;DHT22;21379;50.962;6.960;2022-09-02T06:39:23;19.30;99.90
35246;DHT22;21379;50.962;6.960;2022-09-02T06:41:51;19.40;99.90
35246;DHT22;21379;50.962;6.960;2022-09-02T06:44:19;19.50;99.90
35246;DHT22;21379;50.962;6.960;2022-09-02T06:46:52;19.70;99.90
35246;DHT22;21379;50.962;6.960;2022-09-02T06:49:22;19.70;99.90
35246;DHT22;21379;50.962;6.960;2022-09-02T06:51:50;19.90;99.90
35246;DHT22;21379;50.962;6.960;2022-09-02T06:54:20;19.70;99.90
35246;DHT22;21379;50.962;6.960;2022-09-02T06:56:48;19.50;99.90
35246;DHT22;21379;50.962;6.960;2022-09-02T06:59:16;19.30;99.90
35246;DHT22;21379;50.962;6.960;2022-09-02T07:01:43;19.10;99.90
35246;DHT22;21379;50.962;6.960;2022-09-02T07:04:11;19.00;99.90
35246;DHT22;21379;50.962;6.960;2022-09-02T07:06:56;18.90;99.90
35246;DHT22;21379;50.962;6.960;2022-09-02T07:09:26;18.80;99.90
35246;DHT22;21379;50.962;6.960;2022-09-02T07:11:56;18.80;99.90
35246;DHT22;21379;50.962;6.960;2022-09-02T07:14:23;18.70;99.90
35246;DHT22;21379;50.962;6.960;2022-09-02T07:16:53;18.80;99.90
35246;DHT22;21379;50.962;6.960;2022-09-02T07:19:23;18.80;99.90
35246;DHT22;21379;50.962;6.960;2022-09-02T07:21:51;18.70;99.90
35246;DHT22;21379;50.962;6.960;2022-09-02T07:24:19;18.80;99.90
35246;DHT22;21379;50.962;6.960;2022-09-02T07:26:47;18.90;99.90
35246;DHT22;21379;50.962;6.960;2022-09-02T07:29:14;19.10;99.90
35246;DHT22;21379;50.962;6.960;2022-09-02T07:31:44;19.70;99.90
35246;DHT22;21379;50.962;6.960;2022-09-02T07:34:11;20.30;99.90
35246;DHT22;21379;50.962;6.960;2022-09-02T07:36:40;20.60;99.90
35246;DHT22;21379;50.962;6.960;2022-09-02T07:39:09;20.70;99.90
35246;DHT22;21379;50.962;6.960;2022-09-02T07:41:39;20.80;99.90
35246;DHT22;21379;50.962;6.960;2022-09-02T07:44:07;21.10;99.90
35246;DHT22;21379;50.962;6.960;2022-09-02T07:46:34;21.20;99.90
35246;DHT22;21379;50.962;6.960;2022-09-02T07:49:04;21.40;99.90
35246;DHT22;21379;50.962;6.960;2022-09-02T07:51:32;21.50;99.90
35246;DHT22;21379;50.962;6.960;2022-09-02T07:53:59;21.30;99.90
35246;DHT22;21379;50.962;6.960;2022-09-02T07:56:27;21.10;99.90
35246;DHT22;21379;50.962;6.960;2022-09-02T07:58:55;21.00;99.90
35246;DHT22;21379;50.962;6.960;2022-09-02T08:01:23;21.10;99.90
35246;DHT22;21379;50.962;6.960;2022-09-02T08:03:50;21.60;99.90
35246;DHT22;21379;50.962;6.960;2022-09-02T08:06:18;21.70;99.90
35246;DHT22;21379;50.962;6.960;2022-09-02T08:08:46;21.80;99.90
35246;DHT22;21379;50.962;6.960;2022-09-02T08:11:13;21.60;99.90
35246;DHT22;21379;50.962;6.960;2022-09-02T08:13:40;22.30;99.90
35246;DHT22;21379;50.962;6.960;2022-09-02T08:16:08;23.10;99.90
35246;DHT22;21379;50.962;6.960;2022-09-02T08:18:35;23.50;99.90
35246;DHT22;21379;50.962;6.960;2022-09-02T08:21:03;23.80;99.90
35246;DHT22;21379;50.962;6.960;2022-09-02T08:23:30;23.70;99.90
35246;DHT22;21379;50.962;6.960;2022-09-02T08:25:58;23.80;99.90
35246;DHT22;21379;50.962;6.960;2022-09-02T08:28:25;24.30;99.90
35246;DHT22;21379;50.962;6.960;2022-09-02T08:30:52;24.60;99.90
35246;DHT22;21379;50.962;6.960;2022-09-02T08:33:20;25.10;99.60
35246;DHT22;21379;50.962;6.960;2022-09-02T08:35:47;25.40;99.50
35246;DHT22;21379;50.962;6.960;2022-09-02T08:38:14;25.90;98.80
35246;DHT22;21379;50.962;6.960;2022-09-02T08:40:42;26.00;98.40
35246;DHT22;21379;50.962;6.960;2022-09-02T08:43:25;26.10;98.30
35246;DHT22;21379;50.962;6.960;2022-09-02T08:45:57;26.50;97.90
35246;DHT22;21379;50.962;6.960;2022-09-02T08:48:34;26.70;97.30
35246;DHT22;21379;50.962;6.960;2022-09-02T08:51:07;27.20;97.00
35246;DHT22;21379;50.962;6.960;2022-09-02T08:53:39;27.20;95.80
35246;DHT22;21379;50.962;6.960;2022-09-02T08:56:13;27.50;95.20
35246;DHT22;21379;50.962;6.960;2022-09-02T08:58:44;27.60;95.30
35246;DHT22;21379;50.962;6.960;2022-09-02T09:01:19;27.50;94.60
35246;DHT22;21379;50.962;6.960;2022-09-02T09:07:02;27.40;93.90
35246;DHT22;21379;50.962;6.960;2022-09-02T09:09:39;27.40;93.50
35246;DHT22;21379;50.962;6.960;2022-09-02T09:12:13;27.40;93.30
35246;DHT22;21379;50.962;6.960;2022-09-02T09:14:47;27.50;93.00
35246;DHT22;21379;50.962;6.960;2022-09-02T09:17:22;27.70;93.50
35246;DHT22;21379;50.962;6.960;2022-09-02T09:19:53;27.60;92.90
35246;DHT22;21379;50.962;6.960;2022-09-02T09:22:27;27.80;92.80
35246;DHT22;21379;50.962;6.960;2022-09-02T09:24:56;28.30;92.40
35246;DHT22;21379;50.962;6.960;2022-09-02T09:27:23;28.00;92.20
35246;DHT22;21379;50.962;6.960;2022-09-02T09:29:51;28.30;91.90
35246;DHT22;21379;50.962;6.960;2022-09-02T09:32:22;28.50;91.60
35246;DHT22;21379;50.962;6.960;2022-09-02T09:34:58;28.10;90.80
35246;DHT22;21379;50.962;6.960;2022-09-02T09:37:31;27.30;90.90
35246;DHT22;21379;50.962;6.960;2022-09-02T09:39:59;27.40;91.50
35246;DHT22;21379;50.962;6.960;2022-09-02T09:42:32;27.40;91.10
35246;DHT22;21379;50.962;6.960;2022-09-02T09:45:14;27.50;91.00
35246;DHT22;21379;50.962;6.960;2022-09-02T09:47:43;28.00;91.30
35246;DHT22;21379;50.962;6.960;2022-09-02T09:50:15;27.80;90.70
35246;DHT22;21379;50.962;6.960;2022-09-02T09:52:43;27.90;91.10
35246;DHT22;21379;50.962;6.960;2022-09-02T09:55:15;27.80;90.70
35246;DHT22;21379;50.962;6.960;2022-09-02T09:57:45;27.80;90.30
35246;DHT22;21379;50.962;6.960;2022-09-02T10:00:19;28.30;90.30
35246;DHT22;21379;50.962;6.960;2022-09-02T10:02:49;28.10;89.60
35246;DHT22;21379;50.962;6.960;2022-09-02T10:05:30;28.50;87.50
35246;DHT22;21379;50.962;6.960;2022-09-02T10:07:59;28.40;87.70
35246;DHT22;21379;50.962;6.960;2022-09-02T10:10:28;28.80;87.80
35246;DHT22;21379;50.962;6.960;2022-09-02T10:12:58;28.70;86.60
35246;DHT22;21379;50.962;6.960;2022-09-02T10:15:40;29.20;86.30
35246;DHT22;21379;50.962;6.960;2022-09-02T10:18:18;29.60;85.00
35246;DHT22;21379;50.962;6.960;2022-09-02T10:20:57;29.30;84.20
35246;DHT22;21379;50.962;6.960;2022-09-02T10:23:31;29.50;83.70
35246;DHT22;21379;50.962;6.960;2022-09-02T10:26:08;30.00;82.80
35246;DHT22;21379;50.962;6.960;2022-09-02T10:29:06;29.90;82.20
35246;DHT22;21379;50.962;6.960;2022-09-02T10:31:43;29.80;81.40
35246;DHT22;21379;50.962;6.960;2022-09-02T10:34:21;29.60;80.90
35246;DHT22;21379;50.962;6.960;2022-09-02T10:37:09;29.00;80.30
35246;DHT22;21379;50.962;6.960;2022-09-02T10:39:54;28.90;79.80
35246;DHT22;21379;50.962;6.960;2022-09-02T10:42:29;28.80;78.60
35246;DHT22;21379;50.962;6.960;2022-09-02T10:45:05;28.70;79.40
35246;DHT22;21379;50.962;6.960;2022-09-02T10:47:36;28.60;78.50
35246;DHT22;21379;50.962;6.960;2022-09-02T10:50:12;28.30;77.60
35246;DHT22;21379;50.962;6.960;2022-09-02T10:53:05;28.00;77.90
35246;DHT22;21379;50.962;6.960;2022-09-02T10:55:41;28.50;78.80
35246;DHT22;21379;50.962;6.960;2022-09-02T10:58:13;28.50;79.50
35246;DHT22;21379;50.962;6.960;2022-09-02T11:00:45;28.10;76.30
35246;DHT22;21379;50.962;6.960;2022-09-02T11:03:21;27.80;75.30
35246;DHT22;21379;50.962;6.960;2022-09-02T11:05:51;27.20;75.30
35246;DHT22;21379;50.962;6.960;2022-09-02T11:08:26;26.80;76.40
35246;DHT22;21379;50.962;6.960;2022-09-02T11:11:02;26.60;77.80
35246;DHT22;21379;50.962;6.960;2022-09-02T11:13:37;27.50;79.00
35246;DHT22;21379;50.962;6.960;2022-09-02T11:16:07;27.90;77.10
35246;DHT22;21379;50.962;6.960;2022-09-02T11:18:42;27.80;77.60
35246;DHT22;21379;50.962;6.960;2022-09-02T11:21:23;27.80;76.10
35246;DHT22;21379;50.962;6.960;2022-09-02T11:23:56;27.30;76.40
35246;DHT22;21379;50.962;6.960;2022-09-02T11:26:28;27.70;78.10
35246;DHT22;21379;50.962;6.960;2022-09-02T11:29:01;27.80;76.70
35246;DHT22;21379;50.962;6.960;2022-09-02T11:31:33;28.30;77.50
35246;DHT22;21379;50.962;6.960;2022-09-02T11:34:04;28.40;76.30
35246;DHT22;21379;50.962;6.960;2022-09-02T11:36:37;28.50;78.50
35246;DHT22;21379;50.962;6.960;2022-09-02T11:39:08;28.80;80.70
35246;DHT22;21379;50.962;6.960;2022-09-02T11:41:52;29.00;74.90
35246;DHT22;21379;50.962;6.960;2022-09-02T11:44:27;29.00;76.60
35246;DHT22;21379;50.962;6.960;2022-09-02T11:47:14;29.30;76.30
35246;DHT22;21379;50.962;6.960;2022-09-02T11:50:09;29.40;77.40
35246;DHT22;21379;50.962;6.960;2022-09-02T11:52:52;29.30;74.40
35246;DHT22;21379;50.962;6.960;2022-09-02T11:55:29;29.40;74.90
35246;DHT22;21379;50.962;6.960;2022-09-02T11:57:57;29.70;74.90
35246;DHT22;21379;50.962;6.960;2022-09-02T12:00:27;29.50;74.70
35246;DHT22;21379;50.962;6.960;2022-09-02T12:03:00;29.50;73.40
35246;DHT22;21379;50.962;6.960;2022-09-02T12:05:50;29.20;73.80
35246;DHT22;21379;50.962;6.960;2022-09-02T12:08:58;29.50;75.20
35246;DHT22;21379;50.962;6.960;2022-09-02T12:11:45;29.30;73.50
35246;DHT22;21379;50.962;6.960;2022-09-02T12:21:07;29.10;71.80
35246;DHT22;21379;50.962;6.960;2022-09-02T12:24:06;28.50;71.50
35246;DHT22;21379;50.962;6.960;2022-09-02T12:29:44;28.80;73.50
35246;DHT22;21379;50.962;6.960;2022-09-02T12:32:11;28.80;73.30
35246;DHT22;21379;50.962;6.960;2022-09-02T12:35:07;28.70;73.10
35246;DHT22;21379;50.962;6.960;2022-09-02T12:37:52;28.70;73.40
35246;DHT22;21379;50.962;6.960;2022-09-02T12:40:22;28.80;73.90
35246;DHT22;21379;50.962;6.960;2022-09-02T12:42:52;28.70;72.70
35246;DHT22;21379;50.962;6.960;2022-09-02T12:45:25;28.60;73.20
35246;DHT22;21379;50.962;6.960;2022-09-02T12:47:58;28.80;73.00
35246;DHT22;21379;50.962;6.960;2022-09-02T12:50:27;28.90;72.00
35246;DHT22;21379;50.962;6.960;2022-09-02T12:53:25;29.10;72.40
35246;DHT22;21379;50.962;6.960;2022-09-02T12:55:56;29.10;72.60
35246;DHT22;21379;50.962;6.960;2022-09-02T12:58:31;29.30;75.40
35246;DHT22;21379;50.962;6.960;2022-09-02T13:01:11;29.20;73.70
35246;DHT22;21379;50.962;6.960;2022-09-02T13:04:01;28.90;71.40
35246;DHT22;21379;50.962;6.960;2022-09-02T13:06:42;28.70;72.00
35246;DHT22;21379;50.962;6.960;2022-09-02T13:09:35;28.90;72.00
35246;DHT22;21379;50.962;6.960;2022-09-02T13:12:42;29.10;72.80
35246;DHT22;21379;50.962;6.960;2022-09-02T13:15:36;29.20;72.70
35246;DHT22;21379;50.962;6.960;2022-09-02T13:18:32;29.30;70.90
35246;DHT22;21379;50.962;6.960;2022-09-02T13:21:26;29.30;72.00
35246;DHT22;21379;50.962;6.960;2022-09-02T13:27:12;29.60;72.10
35246;DHT22;21379;50.962;6.960;2022-09-02T13:30:16;29.70;71.70
35246;DHT22;21379;50.962;6.960;2022-09-02T13:32:44;30.50;74.00
35246;DHT22;21379;50.962;6.960;2022-09-02T13:35:23;30.60;72.30
35246;DHT22;21379;50.962;6.960;2022-09-02T13:37:53;30.20;71.50
35246;DHT22;21379;50.962;6.960;2022-09-02T13:40:26;30.50;71.30
35246;DHT22;21379;50.962;6.960;2022-09-02T13:42:56;30.50;74.20
35246;DHT22;21379;50.962;6.960;2022-09-02T13:45:24;30.60;72.30
35246;DHT22;21379;50.962;6.960;2022-09-02T13:47:53;30.60;71.10
35246;DHT22;21379;50.962;6.960;2022-09-02T13:50:24;30.60;71.30
35246;DHT22;21379;50.962;6.960;2022-09-02T13:52:54;31.10;73.00
35246;DHT22;21379;50.962;6.960;2022-09-02T13:55:22;30.80;70.70
35246;DHT22;21379;50.962;6.960;2022-09-02T13:57:54;31.20;70.50
35246;DHT22;21379;50.962;6.960;2022-09-02T14:00:30;31.10;69.80
35246;DHT22;21379;50.962;6.960;2022-09-02T14:03:01;30.90;69.80
35246;DHT22;21379;50.962;6.960;2022-09-02T14:05:31;31.00;70.80
35246;DHT22;21379;50.962;6.960;2022-09-02T14:08:01;31.20;72.60
35246;DHT22;21379;50.962;6.960;2022-09-02T14:10:29;31.50;69.00
35246;DHT22;21379;50.962;6.960;2022-09-02T14:13:00;31.60;69.90
35246;DHT22;21379;50.962;6.960;2022-09-02T14:15:29;31.50;68.80
35246;DHT22;21379;50.962;6.960;2022-09-02T14:18:13;31.80;68.40
35246;DHT22;21379;50.962;6.960;2022-09-02T14:20:57;31.70;69.10
35246;DHT22;21379;50.962;6.960;2022-09-02T14:23:27;31.20;68.80
35246;DHT22;21379;50.962;6.960;2022-09-02T14:25:56;31.50;67.60
35246;DHT22;21379;50.962;6.960;2022-09-02T14:28:25;31.20;67.50
35246;DHT22;21379;50.962;6.960;2022-09-02T14:30:58;30.50;67.50
35246;DHT22;21379;50.962;6.960;2022-09-02T14:33:38;30.20;68.40
35246;DHT22;21379;50.962;6.960;2022-09-02T14:36:10;30.00;68.00
35246;DHT22;21379;50.962;6.960;2022-09-02T14:38:52;29.80;68.00
35246;DHT22;21379;50.962;6.960;2022-09-02T14:41:22;29.20;68.10
35246;DHT22;21379;50.962;6.960;2022-09-02T14:43:52;29.10;69.10
35246;DHT22;21379;50.962;6.960;2022-09-02T14:46:25;28.90;69.30
35246;DHT22;21379;50.962;6.960;2022-09-02T14:49:00;28.70;69.70
35246;DHT22;21379;50.962;6.960;2022-09-02T14:51:35;28.60;69.60
35246;DHT22;21379;50.962;6.960;2022-09-02T14:54:03;28.30;68.20
35246;DHT22;21379;50.962;6.960;2022-09-02T14:56:48;28.10;69.00
35246;DHT22;21379;50.962;6.960;2022-09-02T14:59:16;28.00;69.30
35246;DHT22;21379;50.962;6.960;2022-09-02T15:01:46;27.90;68.90
35246;DHT22;21379;50.962;6.960;2022-09-02T15:04:13;27.70;67.70
35246;DHT22;21379;50.962;6.960;2022-09-02T15:06:42;27.50;68.50
35246;DHT22;21379;50.962;6.960;2022-09-02T15:09:09;27.50;69.30
35246;DHT22;21379;50.962;6.960;2022-09-02T15:11:37;27.40;69.10
35246;DHT22;21379;50.962;6.960;2022-09-02T15:14:05;27.30;69.50
35246;DHT22;21379;50.962;6.960;2022-09-02T15:16:32;27.20;68.60
35246;DHT22;21379;50.962;6.960;2022-09-02T15:18:59;27.10;68.20
35246;DHT22;21379;50.962;6.960;2022-09-02T15:21:26;27.10;69.20
35246;DHT22;21379;50.962;6.960;2022-09-02T15:23:54;27.00;69.30
35246;DHT22;21379;50.962;6.960;2022-09-02T15:26:21;26.90;69.60
35246;DHT22;21379;50.962;6.960;2022-09-02T15:28:48;26.80;69.10
35246;DHT22;21379;50.962;6.960;2022-09-02T15:31:15;26.70;69.40
35246;DHT22;21379;50.962;6.960;2022-09-02T15:33:48;26.70;69.00
35246;DHT22;21379;50.962;6.960;2022-09-02T15:36:15;26.50;69.10
35246;DHT22;21379;50.962;6.960;2022-09-02T15:38:43;26.50;70.10
35246;DHT22;21379;50.962;6.960;2022-09-02T15:41:16;26.50;69.30
35246;DHT22;21379;50.962;6.960;2022-09-02T15:43:44;26.40;69.40
35246;DHT22;21379;50.962;6.960;2022-09-02T15:46:22;26.30;69.90
35246;DHT22;21379;50.962;6.960;2022-09-02T15:48:49;26.30;72.20
35246;DHT22;21379;50.962;6.960;2022-09-02T15:51:19;26.30;70.80
35246;DHT22;21379;50.962;6.960;2022-09-02T15:53:46;26.20;70.90
35246;DHT22;21379;50.962;6.960;2022-09-02T15:56:21;26.10;69.60
35246;DHT22;21379;50.962;6.960;2022-09-02T15:58:53;26.00;69.80
35246;DHT22;21379;50.962;6.960;2022-09-02T16:01:22;25.90;70.80
35246;DHT22;21379;50.962;6.960;2022-09-02T16:03:49;25.80;70.70
35246;DHT22;21379;50.962;6.960;2022-09-02T16:06:16;25.80;71.00
35246;DHT22;21379;50.962;6.960;2022-09-02T16:08:43;25.80;70.10
35246;DHT22;21379;50.962;6.960;2022-09-02T16:11:10;25.80;70.80
35246;DHT22;21379;50.962;6.960;2022-09-02T16:13:38;25.70;70.20